sensor_id;sensor_type;location;lat;lon;timestamp;P1;durP1;ratioP1;P2;durP2;ratioP2
16179;SDS011;8196;49.428;10.906;2022-12-24T00:02:23;5.28;;;1.75;;
16179;SDS011;8196;49.428;10.906;2022-12-24T00:04:50;7.55;;;1.83;;
16179;SDS011;8196;49.428;10.906;2022-12-24T00:07:25;5.75;;;1.77;;
16179;SDS011;8196;49.428;10.906;2022-12-24T00:09:52;2.63;;;1.17;;
16179;SDS011;8196;49.428;10.906;2022-12-24T00:12:19;3.65;;;1.30;;
16179;SDS011;8196;49.428;10.906;2022-12-24T00:14:47;3.25;;;1.30;;
16179;SDS011;8196;49.428;10.906;2022-12-24T00:17:14;4.10;;;1.30;;
16179;SDS011;8196;49.428;10.906;2022-12-24T00:19:41;2.00;;;1.08;;
16179;SDS011;8196;49.428;10.906;2022-12-24T00:22:08;4.95;;;1.50;;
16179;SDS011;8196;49.428;10.906;2022-12-24T00:24:35;3.67;;;1.50;;
16179;SDS011;8196;49.428;10.906;2022-12-24T00:27:03;2.85;;;1.20;;
16179;SDS011;8196;49.428;10.906;2022-12-24T00:29:31;3.22;;;1.13;;
16179;SDS011;8196;49.428;10.906;2022-12-24T00:31:58;3.92;;;1.80;;
16179;SDS011;8196;49.428;10.906;2022-12-24T00:34:26;4.25;;;1.40;;
16179;SDS011;8196;49.428;10.906;2022-12-24T00:36:53;7.70;;;1.90;;
16179;SDS011;8196;49.428;10.906;2022-12-24T00:39:20;3.30;;;1.38;;
16179;SDS011;8196;49.428;10.906;2022-12-24T00:41:47;5.53;;;1.55;;
16179;SDS011;8196;49.428;10.906;2022-12-24T00:44:14;4.00;;;1.63;;
16179;SDS011;8196;49.428;10.906;2022-12-24T00:46:40;5.37;;;1.50;;
16179;SDS011;8196;49.428;10.906;2022-12-24T00:49:08;6.95;;;1.88;;
16179;SDS011;8196;49.428;10.906;2022-12-24T00:51:36;7.25;;;1.77;;
16179;SDS011;8196;49.428;10.906;2022-12-24T00:54:03;7.57;;;1.90;;
16179;SDS011;8196;49.428;10.906;2022-12-24T00:56:31;6.77;;;2.03;;
16179;SDS011;8196;49.428;10.906;2022-12-24T00:58:58;4.07;;;1.60;;
16179;SDS011;8196;49.428;10.906;2022-12-24T01:01:25;2.37;;;1.50;;
16179;SDS011;8196;49.428;10.906;2022-12-24T01:03:53;4.93;;;1.42;;
16179;SDS011;8196;49.428;10.906;2022-12-24T01:06:40;3.95;;;1.60;;
16179;SDS011;8196;49.428;10.906;2022-12-24T01:09:07;10.00;;;2.03;;
16179;SDS011;8196;49.428;10.906;2022-12-24T01:11:34;7.47;;;2.13;;
16179;SDS011;8196;49.428;10.906;2022-12-24T01:14:02;9.70;;;2.53;;
16179;SDS011;8196;49.428;10.906;2022-12-24T01:16:29;8.23;;;1.90;;
16179;SDS011;8196;49.428;10.906;2022-12-24T01:18:56;6.80;;;2.15;;
16179;SDS011;8196;49.428;10.906;2022-12-24T01:21:23;7.37;;;2.30;;
16179;SDS011;8196;49.428;10.906;2022-12-24T01:23:51;7.50;;;2.20;;
16179;SDS011;8196;49.428;10.906;2022-12-24T01:26:18;9.90;;;2.07;;
16179;SDS011;8196;49.428;10.906;2022-12-24T01:28:45;8.27;;;2.17;;
16179;SDS011;8196;49.428;10.906;2022-12-24T01:31:13;9.40;;;2.35;;
16179;SDS011;8196;49.428;10.906;2022-12-24T01:33:41;7.97;;;2.13;;
16179;SDS011;8196;49.428;10.906;2022-12-24T01:36:09;5.73;;;1.80;;
16179;SDS011;8196;49.428;10.906;2022-12-24T01:38:36;6.50;;;2.00;;
16179;SDS011;8196;49.428;10.906;2022-12-24T01:41:03;5.32;;;2.20;;
16179;SDS011;8196;49.428;10.906;2022-12-24T01:43:51;6.20;;;2.20;;
16179;SDS011;8196;49.428;10.906;2022-12-24T01:46:19;7.13;;;2.45;;
16179;SDS011;8196;49.428;10.906;2022-12-24T01:53:53;8.20;;;2.27;;
16179;SDS011;8196;49.428;10.906;2022-12-24T01:56:23;7.47;;;2.35;;
16179;SDS011;8196;49.428;10.906;2022-12-24T01:58:52;7.55;;;2.22;;
16179;SDS011;8196;49.428;10.906;2022-12-24T02:01:21;6.30;;;2.20;;
16179;SDS011;8196;49.428;10.906;2022-12-24T02:03:48;10.97;;;3.20;;
16179;SDS011;8196;49.428;10.906;2022-12-24T02:06:16;7.95;;;2.25;;
16179;SDS011;8196;49.428;10.906;2022-12-24T02:08:44;9.13;;;2.58;;
16179;SDS011;8196;49.428;10.906;2022-12-24T02:11:13;8.82;;;2.38;;
16179;SDS011;8196;49.428;10.906;2022-12-24T02:13:42;9.52;;;2.65;;
16179;SDS011;8196;49.428;10.906;2022-12-24T02:16:17;8.43;;;2.05;;
16179;SDS011;8196;49.428;10.906;2022-12-24T02:26:43;7.15;;;2.10;;
16179;SDS011;8196;49.428;10.906;2022-12-24T02:32:04;5.93;;;2.20;;
16179;SDS011;8196;49.428;10.906;2022-12-24T02:37:24;5.20;;;1.97;;
16179;SDS011;8196;49.428;10.906;2022-12-24T02:39:56;6.28;;;2.10;;
16179;SDS011;8196;49.428;10.906;2022-12-24T02:42:26;6.68;;;2.67;;
16179;SDS011;8196;49.428;10.906;2022-12-24T02:44:55;8.40;;;2.30;;
16179;SDS011;8196;49.428;10.906;2022-12-24T02:47:25;6.57;;;1.85;;
16179;SDS011;8196;49.428;10.906;2022-12-24T02:49:52;9.85;;;2.65;;
16179;SDS011;8196;49.428;10.906;2022-12-24T02:52:28;7.57;;;2.40;;
16179;SDS011;8196;49.428;10.906;2022-12-24T02:54:55;8.40;;;2.45;;
16179;SDS011;8196;49.428;10.906;2022-12-24T02:57:27;5.40;;;2.10;;
16179;SDS011;8196;49.428;10.906;2022-12-24T03:05:18;7.72;;;2.80;;
16179;SDS011;8196;49.428;10.906;2022-12-24T03:10:19;8.73;;;2.80;;
16179;SDS011;8196;49.428;10.906;2022-12-24T03:12:48;6.93;;;2.47;;
16179;SDS011;8196;49.428;10.906;2022-12-24T03:15:17;5.25;;;2.00;;
16179;SDS011;8196;49.428;10.906;2022-12-24T03:17:45;5.40;;;2.15;;
16179;SDS011;8196;49.428;10.906;2022-12-24T03:20:14;7.90;;;2.20;;
16179;SDS011;8196;49.428;10.906;2022-12-24T03:22:43;7.32;;;2.53;;
16179;SDS011;8196;49.428;10.906;2022-12-24T03:25:10;9.80;;;2.30;;
16179;SDS011;8196;49.428;10.906;2022-12-24T03:27:37;6.43;;;2.20;;
16179;SDS011;8196;49.428;10.906;2022-12-24T03:30:07;5.50;;;2.33;;
16179;SDS011;8196;49.428;10.906;2022-12-24T03:32:36;8.53;;;2.17;;
16179;SDS011;8196;49.428;10.906;2022-12-24T03:35:03;8.53;;;2.00;;
16179;SDS011;8196;49.428;10.906;2022-12-24T03:37:30;8.13;;;2.35;;
16179;SDS011;8196;49.428;10.906;2022-12-24T03:39:57;10.20;;;2.50;;
16179;SDS011;8196;49.428;10.906;2022-12-24T03:42:25;6.30;;;2.17;;
16179;SDS011;8196;49.428;10.906;2022-12-24T03:44:52;6.38;;;2.25;;
16179;SDS011;8196;49.428;10.906;2022-12-24T03:47:19;6.38;;;2.20;;
16179;SDS011;8196;49.428;10.906;2022-12-24T03:49:46;9.27;;;2.50;;
16179;SDS011;8196;49.428;10.906;2022-12-24T03:52:13;6.22;;;2.00;;
16179;SDS011;8196;49.428;10.906;2022-12-24T03:54:40;7.10;;;2.30;;
16179;SDS011;8196;49.428;10.906;2022-12-24T03:57:07;7.47;;;2.00;;
16179;SDS011;8196;49.428;10.906;2022-12-24T03:59:34;5.10;;;1.80;;
16179;SDS011;8196;49.428;10.906;2022-12-24T04:02:01;6.43;;;1.90;;
16179;SDS011;8196;49.428;10.906;2022-12-24T04:04:29;6.18;;;2.10;;
16179;SDS011;8196;49.428;10.906;2022-12-24T04:06:58;9.27;;;2.47;;
16179;SDS011;8196;49.428;10.906;2022-12-24T04:09:25;10.48;;;2.10;;
16179;SDS011;8196;49.428;10.906;2022-12-24T04:11:52;8.95;;;2.33;;
16179;SDS011;8196;49.428;10.906;2022-12-24T04:14:19;9.70;;;2.45;;
16179;SDS011;8196;49.428;10.906;2022-12-24T04:16:46;7.30;;;2.20;;
16179;SDS011;8196;49.428;10.906;2022-12-24T04:19:14;7.53;;;2.03;;
16179;SDS011;8196;49.428;10.906;2022-12-24T04:21:41;8.23;;;2.28;;
16179;SDS011;8196;49.428;10.906;2022-12-24T04:24:08;5.82;;;1.90;;
16179;SDS011;8196;49.428;10.906;2022-12-24T04:26:35;7.90;;;2.13;;
16179;SDS011;8196;49.428;10.906;2022-12-24T04:29:02;8.07;;;2.15;;
16179;SDS011;8196;49.428;10.906;2022-12-24T04:31:29;8.02;;;2.03;;
16179;SDS011;8196;49.428;10.906;2022-12-24T04:33:56;9.50;;;2.07;;
16179;SDS011;8196;49.428;10.906;2022-12-24T04:36:23;5.65;;;1.98;;
16179;SDS011;8196;49.428;10.906;2022-12-24T04:38:50;6.18;;;1.92;;
16179;SDS011;8196;49.428;10.906;2022-12-24T04:41:19;9.40;;;2.10;;
16179;SDS011;8196;49.428;10.906;2022-12-24T04:43:50;6.70;;;1.95;;
16179;SDS011;8196;49.428;10.906;2022-12-24T04:46:19;7.15;;;2.20;;
16179;SDS011;8196;49.428;10.906;2022-12-24T04:48:47;6.90;;;2.30;;
16179;SDS011;8196;49.428;10.906;2022-12-24T04:51:15;10.90;;;2.00;;
16179;SDS011;8196;49.428;10.906;2022-12-24T04:53:43;7.93;;;1.92;;
16179;SDS011;8196;49.428;10.906;2022-12-24T04:56:11;7.07;;;2.03;;
16179;SDS011;8196;49.428;10.906;2022-12-24T04:58:42;5.65;;;1.92;;
16179;SDS011;8196;49.428;10.906;2022-12-24T05:01:11;8.93;;;2.30;;
16179;SDS011;8196;49.428;10.906;2022-12-24T05:03:39;6.72;;;1.90;;
16179;SDS011;8196;49.428;10.906;2022-12-24T05:06:07;7.60;;;1.98;;
16179;SDS011;8196;49.428;10.906;2022-12-24T05:08:36;6.23;;;2.00;;
16179;SDS011;8196;49.428;10.906;2022-12-24T05:11:03;7.50;;;2.28;;
16179;SDS011;8196;49.428;10.906;2022-12-24T05:13:30;9.48;;;3.17;;
16179;SDS011;8196;49.428;10.906;2022-12-24T05:16:09;8.02;;;2.40;;
16179;SDS011;8196;49.428;10.906;2022-12-24T05:18:37;5.95;;;1.70;;
16179;SDS011;8196;49.428;10.906;2022-12-24T05:21:08;9.02;;;2.22;;
16179;SDS011;8196;49.428;10.906;2022-12-24T05:23:36;10.38;;;2.63;;
16179;SDS011;8196;49.428;10.906;2022-12-24T05:28:54;5.65;;;2.22;;
16179;SDS011;8196;49.428;10.906;2022-12-24T05:31:22;7.72;;;2.45;;
16179;SDS011;8196;49.428;10.906;2022-12-24T05:33:50;7.00;;;2.17;;
16179;SDS011;8196;49.428;10.906;2022-12-24T05:36:19;4.95;;;2.03;;
16179;SDS011;8196;49.428;10.906;2022-12-24T05:38:46;9.38;;;2.60;;
16179;SDS011;8196;49.428;10.906;2022-12-24T05:41:13;8.23;;;2.35;;
16179;SDS011;8196;49.428;10.906;2022-12-24T05:43:41;8.68;;;2.70;;
16179;SDS011;8196;49.428;10.906;2022-12-24T05:46:08;6.63;;;2.38;;
16179;SDS011;8196;49.428;10.906;2022-12-24T05:48:36;7.50;;;2.30;;
16179;SDS011;8196;49.428;10.906;2022-12-24T05:51:04;10.20;;;2.53;;
16179;SDS011;8196;49.428;10.906;2022-12-24T05:53:31;10.68;;;2.45;;
16179;SDS011;8196;49.428;10.906;2022-12-24T05:56:07;6.60;;;2.40;;
16179;SDS011;8196;49.428;10.906;2022-12-24T05:58:34;10.13;;;2.78;;
16179;SDS011;8196;49.428;10.906;2022-12-24T06:01:02;8.95;;;2.47;;
16179;SDS011;8196;49.428;10.906;2022-12-24T06:03:29;9.73;;;2.70;;
16179;SDS011;8196;49.428;10.906;2022-12-24T06:06:05;8.60;;;2.80;;
16179;SDS011;8196;49.428;10.906;2022-12-24T06:08:33;10.98;;;3.05;;
16179;SDS011;8196;49.428;10.906;2022-12-24T06:11:01;9.43;;;2.95;;
16179;SDS011;8196;49.428;10.906;2022-12-24T06:13:29;11.35;;;2.65;;
16179;SDS011;8196;49.428;10.906;2022-12-24T06:15:57;9.32;;;2.42;;
16179;SDS011;8196;49.428;10.906;2022-12-24T06:18:24;10.90;;;2.50;;
16179;SDS011;8196;49.428;10.906;2022-12-24T06:20:52;9.63;;;2.65;;
16179;SDS011;8196;49.428;10.906;2022-12-24T06:23:19;11.75;;;2.75;;
16179;SDS011;8196;49.428;10.906;2022-12-24T06:25:46;8.88;;;2.67;;
16179;SDS011;8196;49.428;10.906;2022-12-24T06:28:14;11.70;;;2.80;;
16179;SDS011;8196;49.428;10.906;2022-12-24T06:30:45;9.77;;;2.83;;
16179;SDS011;8196;49.428;10.906;2022-12-24T06:33:12;10.98;;;2.47;;
16179;SDS011;8196;49.428;10.906;2022-12-24T06:35:39;6.63;;;2.40;;
16179;SDS011;8196;49.428;10.906;2022-12-24T06:38:07;10.10;;;2.50;;
16179;SDS011;8196;49.428;10.906;2022-12-24T06:40:34;10.30;;;2.50;;
16179;SDS011;8196;49.428;10.906;2022-12-24T06:43:01;9.18;;;2.70;;
16179;SDS011;8196;49.428;10.906;2022-12-24T06:45:28;11.07;;;2.70;;
16179;SDS011;8196;49.428;10.906;2022-12-24T06:47:55;10.10;;;2.55;;
16179;SDS011;8196;49.428;10.906;2022-12-24T06:50:22;8.63;;;2.47;;
16179;SDS011;8196;49.428;10.906;2022-12-24T06:52:49;8.30;;;2.35;;
16179;SDS011;8196;49.428;10.906;2022-12-24T06:55:17;6.50;;;2.60;;
16179;SDS011;8196;49.428;10.906;2022-12-24T06:57:44;8.10;;;2.60;;
16179;SDS011;8196;49.428;10.906;2022-12-24T07:00:11;8.85;;;2.40;;
16179;SDS011;8196;49.428;10.906;2022-12-24T07:02:39;8.65;;;2.40;;
16179;SDS011;8196;49.428;10.906;2022-12-24T07:05:06;11.40;;;2.90;;
16179;SDS011;8196;49.428;10.906;2022-12-24T07:07:36;10.10;;;2.90;;
16179;SDS011;8196;49.428;10.906;2022-12-24T07:10:03;10.25;;;2.90;;
16179;SDS011;8196;49.428;10.906;2022-12-24T07:12:31;8.00;;;2.45;;
16179;SDS011;8196;49.428;10.906;2022-12-24T07:14:58;10.38;;;2.90;;
16179;SDS011;8196;49.428;10.906;2022-12-24T07:17:25;11.10;;;3.63;;
16179;SDS011;8196;49.428;10.906;2022-12-24T07:19:53;7.97;;;3.70;;
16179;SDS011;8196;49.428;10.906;2022-12-24T07:22:20;10.95;;;4.20;;
16179;SDS011;8196;49.428;10.906;2022-12-24T07:24:47;11.35;;;3.28;;
16179;SDS011;8196;49.428;10.906;2022-12-24T07:27:14;10.63;;;3.88;;
16179;SDS011;8196;49.428;10.906;2022-12-24T07:29:41;10.23;;;3.90;;
16179;SDS011;8196;49.428;10.906;2022-12-24T07:32:08;14.23;;;4.10;;
16179;SDS011;8196;49.428;10.906;2022-12-24T07:34:35;11.20;;;3.50;;
16179;SDS011;8196;49.428;10.906;2022-12-24T07:37:05;10.77;;;3.47;;
16179;SDS011;8196;49.428;10.906;2022-12-24T07:39:32;6.78;;;3.00;;
16179;SDS011;8196;49.428;10.906;2022-12-24T07:41:59;9.00;;;3.22;;
16179;SDS011;8196;49.428;10.906;2022-12-24T07:44:26;9.80;;;2.88;;
16179;SDS011;8196;49.428;10.906;2022-12-24T07:46:53;9.27;;;2.90;;
16179;SDS011;8196;49.428;10.906;2022-12-24T07:49:20;9.43;;;3.20;;
16179;SDS011;8196;49.428;10.906;2022-12-24T07:51:47;10.85;;;3.33;;
16179;SDS011;8196;49.428;10.906;2022-12-24T07:54:15;12.27;;;3.85;;
16179;SDS011;8196;49.428;10.906;2022-12-24T07:56:42;6.65;;;3.13;;
16179;SDS011;8196;49.428;10.906;2022-12-24T07:59:11;9.95;;;3.17;;
16179;SDS011;8196;49.428;10.906;2022-12-24T08:01:39;16.88;;;3.63;;
16179;SDS011;8196;49.428;10.906;2022-12-24T08:04:06;15.35;;;3.90;;
16179;SDS011;8196;49.428;10.906;2022-12-24T08:06:33;12.55;;;4.13;;
16179;SDS011;8196;49.428;10.906;2022-12-24T08:09:01;13.55;;;3.88;;
16179;SDS011;8196;49.428;10.906;2022-12-24T08:11:28;15.65;;;4.20;;
16179;SDS011;8196;49.428;10.906;2022-12-24T08:13:55;14.18;;;4.10;;
16179;SDS011;8196;49.428;10.906;2022-12-24T08:16:23;15.85;;;4.60;;
16179;SDS011;8196;49.428;10.906;2022-12-24T08:18:50;15.93;;;4.93;;
16179;SDS011;8196;49.428;10.906;2022-12-24T08:21:17;11.23;;;4.50;;
16179;SDS011;8196;49.428;10.906;2022-12-24T08:23:45;13.77;;;4.37;;
16179;SDS011;8196;49.428;10.906;2022-12-24T08:26:12;11.80;;;4.55;;
16179;SDS011;8196;49.428;10.906;2022-12-24T08:28:39;15.38;;;4.70;;
16179;SDS011;8196;49.428;10.906;2022-12-24T08:31:07;12.07;;;3.90;;
16179;SDS011;8196;49.428;10.906;2022-12-24T08:33:34;15.85;;;4.18;;
16179;SDS011;8196;49.428;10.906;2022-12-24T08:36:01;18.63;;;4.20;;
16179;SDS011;8196;49.428;10.906;2022-12-24T08:38:28;13.30;;;3.72;;
16179;SDS011;8196;49.428;10.906;2022-12-24T08:40:55;13.55;;;3.83;;
16179;SDS011;8196;49.428;10.906;2022-12-24T08:43:23;15.23;;;3.67;;
16179;SDS011;8196;49.428;10.906;2022-12-24T08:45:51;12.27;;;3.83;;
16179;SDS011;8196;49.428;10.906;2022-12-24T08:48:19;12.67;;;3.63;;
16179;SDS011;8196;49.428;10.906;2022-12-24T08:50:46;10.45;;;3.47;;
16179;SDS011;8196;49.428;10.906;2022-12-24T08:53:13;12.55;;;3.60;;
16179;SDS011;8196;49.428;10.906;2022-12-24T08:55:40;15.80;;;4.00;;
16179;SDS011;8196;49.428;10.906;2022-12-24T08:58:07;11.33;;;3.60;;
16179;SDS011;8196;49.428;10.906;2022-12-24T09:00:34;13.35;;;3.75;;
16179;SDS011;8196;49.428;10.906;2022-12-24T09:03:01;10.73;;;3.38;;
16179;SDS011;8196;49.428;10.906;2022-12-24T09:05:28;16.50;;;3.70;;
16179;SDS011;8196;49.428;10.906;2022-12-24T09:07:55;12.73;;;3.77;;
16179;SDS011;8196;49.428;10.906;2022-12-24T09:10:23;11.65;;;3.85;;
16179;SDS011;8196;49.428;10.906;2022-12-24T09:12:50;13.83;;;4.03;;
16179;SDS011;8196;49.428;10.906;2022-12-24T09:15:17;16.98;;;3.90;;
16179;SDS011;8196;49.428;10.906;2022-12-24T09:17:44;15.20;;;3.90;;
16179;SDS011;8196;49.428;10.906;2022-12-24T09:20:11;13.55;;;4.60;;
16179;SDS011;8196;49.428;10.906;2022-12-24T09:22:38;12.43;;;4.03;;
16179;SDS011;8196;49.428;10.906;2022-12-24T09:25:06;10.32;;;3.42;;
16179;SDS011;8196;49.428;10.906;2022-12-24T09:27:33;13.02;;;3.75;;
16179;SDS011;8196;49.428;10.906;2022-12-24T09:30:00;12.93;;;3.80;;
16179;SDS011;8196;49.428;10.906;2022-12-24T09:32:28;13.45;;;3.50;;
16179;SDS011;8196;49.428;10.906;2022-12-24T09:34:55;9.98;;;3.42;;
16179;SDS011;8196;49.428;10.906;2022-12-24T09:37:24;11.60;;;3.60;;
16179;SDS011;8196;49.428;10.906;2022-12-24T09:39:51;10.10;;;3.47;;
16179;SDS011;8196;49.428;10.906;2022-12-24T09:42:25;13.40;;;3.53;;
16179;SDS011;8196;49.428;10.906;2022-12-24T09:44:57;10.60;;;3.25;;
16179;SDS011;8196;49.428;10.906;2022-12-24T09:47:43;14.93;;;3.85;;
16179;SDS011;8196;49.428;10.906;2022-12-24T09:52:59;11.60;;;3.38;;
16179;SDS011;8196;49.428;10.906;2022-12-24T09:55:30;9.57;;;3.05;;
16179;SDS011;8196;49.428;10.906;2022-12-24T09:57:58;11.95;;;3.78;;
16179;SDS011;8196;49.428;10.906;2022-12-24T10:00:31;10.02;;;3.80;;
16179;SDS011;8196;49.428;10.906;2022-12-24T10:02:59;13.00;;;3.72;;
16179;SDS011;8196;49.428;10.906;2022-12-24T10:05:36;12.82;;;3.70;;
16179;SDS011;8196;49.428;10.906;2022-12-24T10:10:52;11.88;;;3.30;;
16179;SDS011;8196;49.428;10.906;2022-12-24T10:13:31;10.82;;;3.10;;
16179;SDS011;8196;49.428;10.906;2022-12-24T10:16:11;13.32;;;4.53;;
16179;SDS011;8196;49.428;10.906;2022-12-24T10:21:39;14.68;;;4.30;;
16179;SDS011;8196;49.428;10.906;2022-12-24T10:24:24;12.38;;;4.38;;
16179;SDS011;8196;49.428;10.906;2022-12-24T10:27:03;12.82;;;4.35;;
16179;SDS011;8196;49.428;10.906;2022-12-24T10:29:33;11.03;;;4.27;;
16179;SDS011;8196;49.428;10.906;2022-12-24T10:34:45;11.52;;;4.25;;
16179;SDS011;8196;49.428;10.906;2022-12-24T10:37:20;12.25;;;4.18;;
16179;SDS011;8196;49.428;10.906;2022-12-24T10:39:48;11.27;;;3.83;;
16179;SDS011;8196;49.428;10.906;2022-12-24T10:42:16;11.75;;;6.03;;
16179;SDS011;8196;49.428;10.906;2022-12-24T10:44:44;10.82;;;4.10;;
16179;SDS011;8196;49.428;10.906;2022-12-24T10:47:15;13.13;;;5.03;;
16179;SDS011;8196;49.428;10.906;2022-12-24T10:49:48;15.57;;;7.28;;
16179;SDS011;8196;49.428;10.906;2022-12-24T10:52:20;11.70;;;4.70;;
16179;SDS011;8196;49.428;10.906;2022-12-24T10:55:05;11.73;;;4.60;;
16179;SDS011;8196;49.428;10.906;2022-12-24T10:57:32;12.00;;;3.87;;
16179;SDS011;8196;49.428;10.906;2022-12-24T10:59:59;10.63;;;3.42;;
16179;SDS011;8196;49.428;10.906;2022-12-24T11:04:55;9.53;;;3.37;;
16179;SDS011;8196;49.428;10.906;2022-12-24T11:07:24;13.18;;;3.70;;
16179;SDS011;8196;49.428;10.906;2022-12-24T11:09:54;10.13;;;3.40;;
16179;SDS011;8196;49.428;10.906;2022-12-24T11:12:22;11.07;;;3.10;;
16179;SDS011;8196;49.428;10.906;2022-12-24T11:15:12;12.65;;;3.85;;
16179;SDS011;8196;49.428;10.906;2022-12-24T11:17:37;10.73;;;3.22;;
16179;SDS011;8196;49.428;10.906;2022-12-24T11:20:05;8.07;;;2.70;;
16179;SDS011;8196;49.428;10.906;2022-12-24T11:22:33;8.18;;;2.60;;
16179;SDS011;8196;49.428;10.906;2022-12-24T11:25:02;11.35;;;3.80;;
16179;SDS011;8196;49.428;10.906;2022-12-24T11:32:41;11.77;;;2.90;;
16179;SDS011;8196;49.428;10.906;2022-12-24T11:35:18;10.10;;;2.83;;
16179;SDS011;8196;49.428;10.906;2022-12-24T11:37:47;9.82;;;2.80;;
16179;SDS011;8196;49.428;10.906;2022-12-24T11:40:19;7.82;;;2.90;;
16179;SDS011;8196;49.428;10.906;2022-12-24T11:42:46;10.43;;;3.55;;
16179;SDS011;8196;49.428;10.906;2022-12-24T11:45:21;10.17;;;2.90;;
16179;SDS011;8196;49.428;10.906;2022-12-24T11:47:49;8.52;;;2.50;;
16179;SDS011;8196;49.428;10.906;2022-12-24T11:52:48;11.07;;;2.95;;
16179;SDS011;8196;49.428;10.906;2022-12-24T11:55:24;7.97;;;2.60;;
16179;SDS011;8196;49.428;10.906;2022-12-24T11:57:55;10.20;;;3.10;;
16179;SDS011;8196;49.428;10.906;2022-12-24T12:00:23;9.45;;;3.08;;
16179;SDS011;8196;49.428;10.906;2022-12-24T12:02:51;8.80;;;2.60;;
16179;SDS011;8196;49.428;10.906;2022-12-24T12:05:26;13.40;;;3.22;;
16179;SDS011;8196;49.428;10.906;2022-12-24T12:07:57;13.55;;;3.47;;
16179;SDS011;8196;49.428;10.906;2022-12-24T12:10:28;10.05;;;2.97;;
16179;SDS011;8196;49.428;10.906;2022-12-24T12:13:04;10.15;;;2.90;;
16179;SDS011;8196;49.428;10.906;2022-12-24T12:15:43;14.15;;;3.28;;
16179;SDS011;8196;49.428;10.906;2022-12-24T12:18:15;9.90;;;3.28;;
16179;SDS011;8196;49.428;10.906;2022-12-24T12:23:34;13.13;;;3.33;;
16179;SDS011;8196;49.428;10.906;2022-12-24T12:26:05;8.93;;;3.72;;
16179;SDS011;8196;49.428;10.906;2022-12-24T12:28:45;7.47;;;2.73;;
16179;SDS011;8196;49.428;10.906;2022-12-24T12:31:16;12.25;;;3.63;;
16179;SDS011;8196;49.428;10.906;2022-12-24T12:36:35;10.75;;;2.53;;
16179;SDS011;8196;49.428;10.906;2022-12-24T12:39:05;12.40;;;2.92;;
16179;SDS011;8196;49.428;10.906;2022-12-24T12:51:59;11.38;;;3.20;;
16179;SDS011;8196;49.428;10.906;2022-12-24T12:56:57;10.00;;;3.03;;
16179;SDS011;8196;49.428;10.906;2022-12-24T12:59:31;9.88;;;2.78;;
16179;SDS011;8196;49.428;10.906;2022-12-24T13:05:01;11.07;;;2.70;;
16179;SDS011;8196;49.428;10.906;2022-12-24T13:10:08;7.75;;;2.25;;
16179;SDS011;8196;49.428;10.906;2022-12-24T13:15:10;13.20;;;6.80;;
16179;SDS011;8196;49.428;10.906;2022-12-24T13:25:34;8.13;;;2.55;;
16179;SDS011;8196;49.428;10.906;2022-12-24T13:30:52;7.45;;;2.60;;
16179;SDS011;8196;49.428;10.906;2022-12-24T13:36:06;10.30;;;2.83;;
16179;SDS011;8196;49.428;10.906;2022-12-24T13:41:36;11.02;;;2.47;;
16179;SDS011;8196;49.428;10.906;2022-12-24T13:46:45;7.95;;;2.60;;
16179;SDS011;8196;49.428;10.906;2022-12-24T13:49:21;9.98;;;2.85;;
16179;SDS011;8196;49.428;10.906;2022-12-24T13:52:03;7.05;;;2.55;;
16179;SDS011;8196;49.428;10.906;2022-12-24T13:54:30;10.98;;;2.65;;
16179;SDS011;8196;49.428;10.906;2022-12-24T13:56:58;8.13;;;3.88;;
16179;SDS011;8196;49.428;10.906;2022-12-24T13:59:31;13.97;;;5.40;;
16179;SDS011;8196;49.428;10.906;2022-12-24T14:02:04;10.57;;;3.60;;
16179;SDS011;8196;49.428;10.906;2022-12-24T14:04:32;9.13;;;3.55;;
16179;SDS011;8196;49.428;10.906;2022-12-24T14:07:01;11.30;;;3.90;;
16179;SDS011;8196;49.428;10.906;2022-12-24T14:09:29;10.00;;;3.33;;
16179;SDS011;8196;49.428;10.906;2022-12-24T14:14:29;11.27;;;4.30;;
16179;SDS011;8196;49.428;10.906;2022-12-24T14:16:58;11.05;;;4.68;;
16179;SDS011;8196;49.428;10.906;2022-12-24T14:19:28;12.27;;;4.10;;
16179;SDS011;8196;49.428;10.906;2022-12-24T14:24:31;15.75;;;5.47;;
16179;SDS011;8196;49.428;10.906;2022-12-24T14:27:11;10.10;;;3.67;;
16179;SDS011;8196;49.428;10.906;2022-12-24T14:32:33;11.20;;;3.72;;
16179;SDS011;8196;49.428;10.906;2022-12-24T14:35:04;10.10;;;3.83;;
16179;SDS011;8196;49.428;10.906;2022-12-24T14:37:32;10.13;;;4.10;;
16179;SDS011;8196;49.428;10.906;2022-12-24T14:40:00;14.50;;;3.40;;
16179;SDS011;8196;49.428;10.906;2022-12-24T14:45:06;12.18;;;3.97;;
16179;SDS011;8196;49.428;10.906;2022-12-24T14:50:33;10.00;;;3.38;;
16179;SDS011;8196;49.428;10.906;2022-12-24T14:56:14;10.23;;;2.75;;
16179;SDS011;8196;49.428;10.906;2022-12-24T14:58:42;7.40;;;2.70;;
16179;SDS011;8196;49.428;10.906;2022-12-24T15:01:26;11.13;;;3.38;;
16179;SDS011;8196;49.428;10.906;2022-12-24T15:06:37;11.60;;;3.10;;
16179;SDS011;8196;49.428;10.906;2022-12-24T15:09:09;11.80;;;3.88;;
16179;SDS011;8196;49.428;10.906;2022-12-24T15:11:42;10.67;;;2.80;;
16179;SDS011;8196;49.428;10.906;2022-12-24T15:14:10;11.75;;;3.60;;
16179;SDS011;8196;49.428;10.906;2022-12-24T15:16:38;13.10;;;3.53;;
16179;SDS011;8196;49.428;10.906;2022-12-24T15:19:07;9.73;;;3.47;;
16179;SDS011;8196;49.428;10.906;2022-12-24T15:21:37;11.95;;;3.88;;
16179;SDS011;8196;49.428;10.906;2022-12-24T15:24:22;11.53;;;3.87;;
16179;SDS011;8196;49.428;10.906;2022-12-24T15:26:49;9.32;;;3.30;;
16179;SDS011;8196;49.428;10.906;2022-12-24T15:29:20;9.32;;;3.30;;
16179;SDS011;8196;49.428;10.906;2022-12-24T15:31:55;9.70;;;3.80;;
16179;SDS011;8196;49.428;10.906;2022-12-24T15:34:40;9.53;;;4.33;;
16179;SDS011;8196;49.428;10.906;2022-12-24T15:39:34;12.88;;;4.10;;
16179;SDS011;8196;49.428;10.906;2022-12-24T15:42:01;11.20;;;4.60;;
16179;SDS011;8196;49.428;10.906;2022-12-24T15:44:54;10.60;;;3.72;;
16179;SDS011;8196;49.428;10.906;2022-12-24T15:47:25;12.85;;;4.53;;
16179;SDS011;8196;49.428;10.906;2022-12-24T15:49:53;13.00;;;5.22;;
16179;SDS011;8196;49.428;10.906;2022-12-24T15:52:20;13.98;;;5.00;;
16179;SDS011;8196;49.428;10.906;2022-12-24T15:54:50;13.48;;;4.45;;
16179;SDS011;8196;49.428;10.906;2022-12-24T15:59:53;13.32;;;4.68;;
16179;SDS011;8196;49.428;10.906;2022-12-24T16:02:37;12.40;;;4.40;;
16179;SDS011;8196;49.428;10.906;2022-12-24T16:10:39;78.95;;;44.35;;
16179;SDS011;8196;49.428;10.906;2022-12-24T16:13:11;269.50;;;239.48;;
16179;SDS011;8196;49.428;10.906;2022-12-24T16:15:42;298.13;;;265.98;;
16179;SDS011;8196;49.428;10.906;2022-12-24T16:18:18;1307.75;;;840.30;;
16179;SDS011;8196;49.428;10.906;2022-12-24T16:20:46;586.78;;;501.98;;
16179;SDS011;8196;49.428;10.906;2022-12-24T16:23:16;86.80;;;71.47;;
16179;SDS011;8196;49.428;10.906;2022-12-24T16:25:43;53.13;;;41.03;;
16179;SDS011;8196;49.428;10.906;2022-12-24T16:28:10;66.30;;;37.83;;
16179;SDS011;8196;49.428;10.906;2022-12-24T16:30:47;20.02;;;10.73;;
16179;SDS011;8196;49.428;10.906;2022-12-24T16:33:15;22.92;;;13.27;;
16179;SDS011;8196;49.428;10.906;2022-12-24T16:35:43;343.50;;;310.40;;
16179;SDS011;8196;49.428;10.906;2022-12-24T16:38:11;106.20;;;95.93;;
16179;SDS011;8196;49.428;10.906;2022-12-24T16:40:39;26.53;;;18.87;;
16179;SDS011;8196;49.428;10.906;2022-12-24T16:43:06;15.13;;;9.15;;
16179;SDS011;8196;49.428;10.906;2022-12-24T16:48:24;13.57;;;6.85;;
16179;SDS011;8196;49.428;10.906;2022-12-24T16:50:51;14.18;;;6.60;;
16179;SDS011;8196;49.428;10.906;2022-12-24T16:53:20;14.38;;;6.15;;
16179;SDS011;8196;49.428;10.906;2022-12-24T16:55:47;13.27;;;6.10;;
16179;SDS011;8196;49.428;10.906;2022-12-24T16:58:17;15.07;;;6.15;;
16179;SDS011;8196;49.428;10.906;2022-12-24T17:00:44;11.82;;;5.88;;
16179;SDS011;8196;49.428;10.906;2022-12-24T17:03:12;17.67;;;6.53;;